Time;durP1;ratioP1;P1;durP2;ratioP2;P2;SDS_P1;SDS_P2;PMS_P1;PMS_P2;Temp;Humidity;BMP_temperature;BMP_pressure;BME280_temperature;BME280_humidity;BME280_pressure;Samples;Min_cycle;Max_cycle;Signal;HPM_P1;HPM_P2
2022/01/20 00:03:18;;;;;;;5.75;2.33;;;;;;;26.16;29.20;97182.97;4910625;28;20086;-60
2022/01/20 00:27:22;;;;;;;10.63;2.20;;;;;;;26.15;29.26;97175.16;4918458;28;20122;-59
2022/01/20 00:33:12;;;;;;;6.03;2.00;;;;;;;26.14;29.36;97181.34;4911195;28;20038;-60
2022/01/20 00:35:27;;;;;;;4.03;2.05;;;;;;;26.13;29.32;97183.13;4911260;28;20039;-60
2022/01/20 00:37:52;;;;;;;6.40;2.17;;;;;;;26.14;29.42;97184.84;4912251;28;20197;-61
2022/01/20 00:40:18;;;;;;;5.88;2.10;;;;;;;26.13;29.35;97192.78;4923842;28;20844;-60
2022/01/20 00:42:43;;;;;;;4.95;1.92;;;;;;;26.12;29.24;97188.47;4915996;28;20046;-60
2022/01/20 00:45:09;;;;;;;4.80;2.20;;;;;;;26.13;29.41;97193.66;4926728;28;20788;-60
2022/01/20 00:47:35;;;;;;;4.80;1.90;;;;;;;26.14;29.36;97194.47;4923556;28;20034;-62
2022/01/20 00:50:00;;;;;;;4.47;2.00;;;;;;;26.13;29.38;97198.91;4907897;28;20027;-60
2022/01/20 00:52:26;;;;;;;5.03;1.73;;;;;;;26.13;29.31;97203.28;4908606;28;20051;-61
2022/01/20 00:54:51;;;;;;;5.03;2.03;;;;;;;26.13;29.45;97214.66;4904488;28;20027;-60
2022/01/20 00:57:16;;;;;;;2.25;1.38;;;;;;;26.13;29.34;97213.78;4910073;28;20653;-61
2022/01/20 00:59:42;;;;;;;3.90;1.73;;;;;;;26.13;29.31;97214.66;4905563;28;20034;-60
2022/01/20 01:02:09;;;;;;;4.60;1.83;;;;;;;26.13;29.35;97209.41;4911836;28;20041;-59
2022/01/20 01:04:35;;;;;;;6.20;1.98;;;;;;;26.13;29.52;97219.06;4921381;28;20050;-61
2022/01/20 01:07:23;;;;;;;3.35;1.70;;;;;;;26.13;29.28;97219.06;4906988;28;20922;-61
2022/01/20 01:09:49;;;;;;;3.97;1.88;;;;;;;26.12;29.37;97220.81;4914544;28;20125;-60
2022/01/20 01:12:20;;;;;;;4.60;1.80;;;;;;;26.12;29.32;97223.44;4920419;28;20035;-61
2022/01/20 01:14:50;;;;;;;3.55;1.80;;;;;;;26.11;29.50;97227.00;4905979;28;20036;-61
2022/01/20 01:24:44;;;;;;;2.60;1.50;;;;;;;26.13;29.35;97229.56;4906941;28;20090;-59
2022/01/20 01:27:10;;;;;;;3.50;1.40;;;;;;;26.12;29.37;97226.06;4906547;28;20027;-62
2022/01/20 01:32:07;;;;;;;4.10;1.50;;;;;;;26.12;29.43;97222.59;4903720;28;20106;-58
2022/01/20 01:34:35;;;;;;;2.85;1.58;;;;;;;26.10;29.31;97220.88;4904022;28;20031;-59
2022/01/20 01:39:26;;;;;;;3.10;1.23;;;;;;;26.10;29.35;97231.38;4904962;28;20038;-59
2022/01/20 01:41:52;;;;;;;5.68;1.85;;;;;;;26.10;29.23;97236.63;4909145;28;20027;-60
2022/01/20 01:44:24;;;;;;;4.93;1.88;;;;;;;26.10;29.22;97230.56;4908044;28;20031;-58
2022/01/20 01:46:49;;;;;;;6.90;1.48;;;;;;;26.10;29.35;97226.13;4924750;28;20027;-61
2022/01/20 01:49:16;;;;;;;2.85;1.55;;;;;;;26.10;29.17;97226.13;4904774;28;21004;-60
2022/01/20 01:51:41;;;;;;;2.95;1.63;;;;;;;26.09;29.22;97216.56;4915161;28;21005;-61
2022/01/20 01:54:07;;;;;;;2.55;1.50;;;;;;;26.09;29.36;97216.56;4909302;28;20035;-61
2022/01/20 01:56:34;;;;;;;1.98;1.17;;;;;;;26.09;29.43;97220.97;4909870;28;20024;-60
2022/01/20 01:58:59;;;;;;;4.43;1.65;;;;;;;26.09;29.35;97218.34;4907808;28;20196;-60
2022/01/20 02:01:26;;;;;;;4.22;1.63;;;;;;;26.08;29.30;97216.63;4911557;28;20721;-60
2022/01/20 02:04:00;;;;;;;7.25;1.40;;;;;;;26.09;29.23;97215.72;4914507;28;20038;-62
2022/01/20 02:19:57;;;;;;;1.73;1.17;;;;;;;26.07;29.20;97210.53;4905286;28;20046;-61
2022/01/20 02:22:23;;;;;;;2.20;1.00;;;;;;;26.06;29.23;97211.47;4907330;28;20035;-60
2022/01/20 02:24:49;;;;;;;2.95;1.48;;;;;;;26.06;29.33;97200.09;4917070;28;20501;-59
2022/01/20 02:27:14;;;;;;;2.15;1.40;;;;;;;26.06;29.22;97203.59;4921317;28;20066;-61
2022/01/20 02:29:41;;;;;;;3.28;1.27;;;;;;;26.06;29.21;97206.22;4926198;28;20050;-62
2022/01/20 02:32:07;;;;;;;3.10;1.40;;;;;;;26.05;29.20;97207.13;4920753;28;20082;-61
2022/01/20 02:34:32;;;;;;;2.65;1.10;;;;;;;26.05;29.23;97201.03;4922562;28;20042;-60
2022/01/20 02:37:00;;;;;;;2.42;1.20;;;;;;;26.04;29.29;97200.19;4923406;28;20035;-61
2022/01/20 02:44:54;;;;;;;1.75;1.10;;;;;;;26.05;29.35;97215.00;4905676;28;20513;-59
2022/01/20 02:47:21;;;;;;;1.50;1.00;;;;;;;26.04;29.27;97215.94;4908202;28;20090;-61
2022/01/20 02:49:47;;;;;;;2.38;1.00;;;;;;;26.04;29.28;97204.56;4905041;28;21612;-61
2022/01/20 02:52:13;;;;;;;3.08;1.13;;;;;;;26.02;29.25;97202.03;4908964;28;20031;-62
2022/01/20 02:54:38;;;;;;;1.40;1.08;;;;;;;26.03;29.17;97208.13;4908990;28;20027;-61
2022/01/20 02:57:04;;;;;;;1.80;1.10;;;;;;;26.03;29.17;97211.63;4907125;28;20078;-60
2022/01/20 02:59:30;;;;;;;3.50;0.85;;;;;;;26.02;29.02;97206.44;4904220;28;20031;-61
2022/01/20 03:01:56;;;;;;;1.58;1.05;;;;;;;26.00;29.12;97209.13;4910309;28;20035;-60
2022/01/20 03:04:25;;;;;;;1.35;0.75;;;;;;;25.98;29.10;97197.84;4905698;28;20070;-62
2022/01/20 03:06:50;;;;;;;2.13;1.13;;;;;;;25.97;29.10;97198.75;4903700;28;20045;-60
2022/01/20 03:09:15;;;;;;;7.63;1.00;;;;;;;25.97;29.18;97201.38;4906817;28;20032;-62
2022/01/20 03:11:41;;;;;;;1.75;0.90;;;;;;;25.96;29.15;97204.94;4906648;28;20023;-60
2022/01/20 03:14:07;;;;;;;3.35;0.95;;;;;;;25.96;29.20;97202.31;4915225;28;20842;-60
2022/01/20 03:16:32;;;;;;;1.80;0.80;;;;;;;25.95;29.06;97209.34;4909604;28;20130;-59
2022/01/20 03:18:57;;;;;;;2.40;1.00;;;;;;;25.96;29.23;97210.19;4905540;28;20050;-59
2022/01/20 03:21:23;;;;;;;2.90;0.80;;;;;;;25.96;29.30;97194.44;4904789;28;20023;-60
2022/01/20 03:23:48;;;;;;;2.15;0.98;;;;;;;25.97;29.34;97206.63;4908598;28;20023;-61
2022/01/20 03:26:14;;;;;;;2.67;0.90;;;;;;;25.96;29.15;97202.31;4909641;28;20038;-60
2022/01/20 03:28:39;;;;;;;1.52;0.80;;;;;;;25.96;29.18;97205.81;4906743;28;20032;-61
2022/01/20 03:31:05;;;;;;;1.27;1.00;;;;;;;25.95;29.10;97211.97;4907983;28;20027;-61
2022/01/20 03:33:30;;;;;;;1.63;0.70;;;;;;;25.95;29.22;97209.34;4907614;28;20060;-62
2022/01/20 03:35:55;;;;;;;2.75;0.80;;;;;;;25.95;29.33;97205.88;4906038;28;20046;-61
2022/01/20 03:38:21;;;;;;;1.48;0.75;;;;;;;25.95;29.28;97200.63;4910053;28;20027;-61
2022/01/20 03:40:46;;;;;;;0.93;0.68;;;;;;;25.95;29.30;97205.88;4903418;28;20035;-61
2022/01/20 03:43:12;;;;;;;1.23;0.77;;;;;;;25.95;29.18;97205.88;4906821;28;20034;-60
2022/01/20 03:45:38;;;;;;;1.55;0.95;;;;;;;25.95;29.22;97198.00;4907580;28;21093;-59
2022/01/20 03:48:10;;;;;;;0.98;0.57;;;;;;;25.95;29.12;97206.72;4906502;28;20379;-63
2022/01/20 03:53:20;;;;;;;1.80;0.77;;;;;;;25.95;29.28;97198.00;4909876;28;19929;-60
2022/01/20 03:55:46;;;;;;;1.95;0.80;;;;;;;25.94;29.24;97196.28;4909893;28;20082;-60
2022/01/20 03:58:11;;;;;;;0.90;0.65;;;;;;;25.94;29.13;97196.28;4907906;28;20042;-64
2022/01/20 04:00:37;;;;;;;0.95;0.70;;;;;;;25.92;29.37;97192.88;4908218;28;20034;-59
2022/01/20 04:03:02;;;;;;;1.38;0.70;;;;;;;25.92;29.16;97196.38;4905664;28;20039;-63
2022/01/20 04:05:27;;;;;;;1.63;0.75;;;;;;;25.93;29.28;97205.09;4889058;28;20039;-60
2022/01/20 04:07:53;;;;;;;2.00;0.63;;;;;;;25.92;29.14;97209.50;4886928;28;20031;-60
2022/01/20 04:10:18;;;;;;;1.27;0.88;;;;;;;25.92;29.20;97208.63;4888128;28;20203;-60
2022/01/20 04:12:43;;;;;;;1.13;0.70;;;;;;;25.92;29.13;97217.38;4891736;28;20718;-61
2022/01/20 04:15:09;;;;;;;0.82;0.57;;;;;;;25.91;29.11;97215.69;4888374;28;20031;-59
2022/01/20 04:17:39;;;;;;;1.17;0.68;;;;;;;25.92;29.33;97216.50;4886920;28;20256;-59
2022/01/20 04:20:05;;;;;;;2.28;0.65;;;;;;;25.92;29.15;97216.50;4885115;29;20035;-59
2022/01/20 04:22:31;;;;;;;0.63;0.55;;;;;;;25.91;29.15;97212.19;4894885;28;20027;-60
2022/01/20 04:24:56;;;;;;;0.50;0.40;;;;;;;25.90;29.20;97219.19;4910445;28;20107;-60
2022/01/20 04:27:21;;;;;;;0.95;0.70;;;;;;;25.92;29.22;97221.75;4913795;28;20035;-60
2022/01/20 04:29:47;;;;;;;0.77;0.60;;;;;;;25.92;29.12;97216.50;4907587;28;20737;-59
2022/01/20 04:32:12;;;;;;;1.83;0.98;;;;;;;25.92;29.17;97227.00;4919923;28;20027;-59
2022/01/20 04:34:38;;;;;;;0.98;0.57;;;;;;;25.91;29.19;97225.31;4908066;28;20039;-61
2022/01/20 04:37:05;;;;;;;0.90;0.50;;;;;;;25.90;29.34;97223.63;4905826;28;20062;-60
2022/01/20 04:39:33;;;;;;;0.95;0.55;;;;;;;25.89;29.46;97221.94;4917163;28;20042;-60
2022/01/20 04:41:58;;;;;;;0.70;0.63;;;;;;;25.91;29.24;97220.06;4916443;28;20028;-60
2022/01/20 04:44:46;;;;;;;1.70;0.60;;;;;;;25.90;29.23;97211.31;4906093;28;20090;-60
2022/01/20 04:58:16;;;;;;;2.17;0.63;;;;;;;25.86;28.93;97209.78;4908041;28;20061;-60
2022/01/20 05:00:41;;;;;;;2.83;0.63;;;;;;;25.86;29.08;97211.56;4906724;28;20212;-60
2022/01/20 05:03:07;;;;;;;1.02;0.57;;;;;;;25.85;29.13;97205.44;4906461;28;20031;-59
2022/01/20 05:05:32;;;;;;;0.90;0.50;;;;;;;25.86;29.10;97208.94;4907532;28;20038;-60
2022/01/20 05:07:59;;;;;;;0.60;0.50;;;;;;;25.85;29.05;97209.88;4903738;28;20031;-59
2022/01/20 05:10:24;;;;;;;2.00;0.40;;;;;;;25.85;29.07;97209.88;4903156;28;20031;-60
2022/01/20 05:15:18;;;;;;;1.17;0.50;;;;;;;25.85;29.17;97223.00;4907530;28;20027;-59
2022/01/20 05:17:44;;;;;;;0.82;0.43;;;;;;;25.84;29.13;97216.88;4902773;28;20089;-59
2022/01/20 05:20:10;;;;;;;1.38;0.50;;;;;;;25.83;29.19;97218.63;4905232;28;20036;-59
2022/01/20 05:22:35;;;;;;;0.93;0.63;;;;;;;25.83;29.26;97218.63;4896562;28;20039;-60
2022/01/20 05:25:02;;;;;;;0.98;0.40;;;;;;;25.85;29.11;97225.63;4909036;28;22134;-60
2022/01/20 05:27:27;;;;;;;1.50;0.60;;;;;;;25.83;29.24;97221.25;4903412;28;20069;-58
2022/01/20 05:29:53;;;;;;;1.67;0.60;;;;;;;25.85;29.16;97220.38;4906135;28;20036;-60
2022/01/20 05:32:19;;;;;;;0.73;0.50;;;;;;;25.85;29.23;97221.19;4903822;28;20023;-59
2022/01/20 05:34:45;;;;;;;0.32;0.28;;;;;;;25.84;29.16;97230.00;4911810;28;20037;-59
2022/01/20 05:37:10;;;;;;;0.68;0.40;;;;;;;25.84;29.20;97230.00;4906778;28;20039;-60
2022/01/20 05:39:35;;;;;;;0.70;0.43;;;;;;;25.83;29.19;97229.13;4917421;28;20514;-59
2022/01/20 05:42:01;;;;;;;0.80;0.45;;;;;;;25.83;29.11;97226.50;4919777;28;20114;-58
2022/01/20 05:44:26;;;;;;;2.35;0.60;;;;;;;25.83;29.25;97231.75;4907825;28;20035;-60
2022/01/20 05:46:53;;;;;;;0.85;0.50;;;;;;;25.83;29.25;97252.75;4909001;28;20044;-60
2022/01/20 05:49:21;;;;;;;0.52;0.40;;;;;;;25.82;29.16;97248.44;4904429;28;20035;-59
2022/01/20 05:51:47;;;;;;;0.60;0.40;;;;;;;25.83;29.00;97239.63;4905557;28;22863;-60
2022/01/20 05:54:12;;;;;;;1.20;0.40;;;;;;;25.83;29.14;97236.19;4906161;28;20038;-60
2022/01/20 05:56:38;;;;;;;2.28;0.40;;;;;;;25.83;29.11;97223.88;4908818;28;20019;-59
2022/01/20 05:59:03;;;;;;;0.75;0.40;;;;;;;25.83;29.24;97230.94;4912511;28;20027;-59
2022/01/20 06:01:31;;;;;;;0.65;0.45;;;;;;;25.81;29.29;97240.63;4906180;28;20024;-60
2022/01/20 06:03:57;;;;;;;0.30;0.30;;;;;;;25.82;29.16;97237.94;4911383;28;20597;-60
2022/01/20 06:06:22;;;;;;;0.40;0.30;;;;;;;25.82;29.24;97232.69;4905987;28;20031;-61
2022/01/20 06:08:48;;;;;;;0.40;0.40;;;;;;;25.81;29.07;97243.25;4902716;28;20028;-59
2022/01/20 06:11:13;;;;;;;0.35;0.35;;;;;;;25.81;29.16;97238.88;4907890;28;20201;-60
2022/01/20 06:13:38;;;;;;;0.40;0.30;;;;;;;25.81;29.19;97246.75;4904697;28;20042;-59
2022/01/20 06:16:04;;;;;;;0.30;0.30;;;;;;;25.81;29.19;97240.63;4907035;28;20031;-60
2022/01/20 06:18:30;;;;;;;1.02;0.40;;;;;;;25.80;29.29;97242.44;4906273;28;20103;-60
2022/01/20 06:20:55;;;;;;;0.50;0.28;;;;;;;25.82;29.33;97237.94;4902490;28;20032;-60
2022/01/20 06:23:21;;;;;;;1.25;0.32;;;;;;;25.81;29.31;97246.75;4919185;28;20031;-59
2022/01/20 06:25:46;;;;;;;1.65;0.47;;;;;;;25.82;29.19;97248.44;4918760;28;20035;-60
2022/01/20 06:28:12;;;;;;;0.32;0.32;;;;;;;25.82;29.21;97243.19;4915609;28;20035;-60
2022/01/20 06:30:37;;;;;;;0.40;0.30;;;;;;;25.81;29.15;97238.00;4922546;28;20035;-60
2022/01/20 06:33:03;;;;;;;2.35;0.30;;;;;;;25.81;29.26;97236.25;4913217;28;20033;-61
2022/01/20 06:35:28;;;;;;;0.57;0.40;;;;;;;25.80;29.13;97239.81;4916037;28;20054;-61
2022/01/20 06:37:54;;;;;;;0.52;0.30;;;;;;;25.82;29.29;97243.19;4921370;28;20059;-59
2022/01/20 06:40:19;;;;;;;0.40;0.30;;;;;;;25.82;29.41;97247.63;4904036;28;20039;-61
2022/01/20 06:42:45;;;;;;;0.95;0.45;;;;;;;25.82;29.25;97253.69;4921914;28;20027;-59
2022/01/20 06:45:12;;;;;;;3.30;0.60;;;;;;;25.82;29.12;97243.19;4909982;28;20137;-60
2022/01/20 06:47:38;;;;;;;0.90;0.30;;;;;;;25.82;29.25;97235.31;4923358;28;20031;-61
2022/01/20 06:50:04;;;;;;;2.80;0.40;;;;;;;25.81;29.30;97236.25;4904903;28;20038;-60
2022/01/20 06:52:29;;;;;;;0.85;0.30;;;;;;;25.83;29.15;97234.38;4911277;28;20393;-60
2022/01/20 06:54:55;;;;;;;0.90;0.43;;;;;;;25.83;29.03;97226.50;4909209;28;20035;-61
2022/01/20 06:57:20;;;;;;;0.40;0.30;;;;;;;25.83;29.15;97237.00;4909686;28;20051;-59
2022/01/20 06:59:46;;;;;;;1.00;0.40;;;;;;;25.82;29.21;97245.81;4910147;28;20124;-59
2022/01/20 07:02:11;;;;;;;0.40;0.28;;;;;;;25.84;29.20;97256.25;4909415;28;20037;-60
2022/01/20 07:04:38;;;;;;;0.45;0.38;;;;;;;25.85;29.23;97257.13;4909574;28;20039;-60
2022/01/20 07:07:04;;;;;;;1.88;0.28;;;;;;;25.83;29.26;97268.53;4905689;28;20035;-60
2022/01/20 07:09:29;;;;;;;0.85;0.40;;;;;;;25.83;29.18;97260.63;4907885;28;20031;-59
2022/01/20 07:11:55;;;;;;;2.67;0.65;;;;;;;25.84;29.30;97243.13;4909689;28;20604;-57
2022/01/20 07:14:20;;;;;;;1.02;0.40;;;;;;;25.86;29.26;97254.44;4908057;28;20599;-60
2022/01/20 07:16:48;;;;;;;0.40;0.25;;;;;;;25.86;29.06;97249.19;4907402;28;20205;-59
2022/01/20 07:19:13;;;;;;;1.58;0.40;;;;;;;25.86;29.26;97258.81;4904228;28;20034;-59
2022/01/20 07:21:39;;;;;;;1.63;0.50;;;;;;;25.85;29.18;97272.88;4903583;28;20134;-59
2022/01/20 07:24:04;;;;;;;1.23;0.38;;;;;;;25.85;29.07;97272.88;4910416;28;20031;-60
2022/01/20 07:26:30;;;;;;;1.65;0.70;;;;;;;25.85;29.12;97291.25;4907722;28;20035;-59
2022/01/20 07:28:55;;;;;;;3.38;1.15;;;;;;;25.84;29.11;97295.63;4904090;28;20031;-60
2022/01/20 07:31:22;;;;;;;7.50;1.60;;;;;;;25.86;28.96;97300.81;4904892;28;20830;-61
2022/01/20 07:33:49;;;;;;;6.80;1.95;;;;;;;25.86;29.05;97285.06;4912865;28;20258;-60
2022/01/20 07:36:15;;;;;;;6.53;1.30;;;;;;;25.85;28.94;97293.88;4909175;28;20119;-60
2022/01/20 07:38:40;;;;;;;5.63;1.40;;;;;;;25.85;29.08;97291.25;4905517;28;20056;-59
2022/01/20 07:41:06;;;;;;;8.77;1.48;;;;;;;25.82;28.95;97300.94;4915293;28;20654;-59
2022/01/20 07:43:31;;;;;;;17.50;2.67;;;;;;;25.82;28.88;97306.19;4911683;28;20097;-60
2022/01/20 07:45:56;;;;;;;10.88;2.80;;;;;;;25.82;28.80;97300.94;4912992;28;20035;-62
2022/01/20 07:48:22;;;;;;;13.30;3.13;;;;;;;25.82;29.02;97305.38;4914093;28;20038;-60
2022/01/20 07:50:48;;;;;;;10.90;2.83;;;;;;;25.81;29.08;97304.50;4908506;28;20031;-60
2022/01/20 07:53:13;;;;;;;8.85;2.92;;;;;;;25.78;28.95;97323.00;4906342;28;20615;-61
2022/01/20 07:55:39;;;;;;;14.13;2.60;;;;;;;25.79;29.06;97322.13;4931593;28;20031;-60
2022/01/20 07:58:05;;;;;;;8.25;2.50;;;;;;;25.80;29.14;97334.31;4914994;28;20031;-60
2022/01/20 08:00:30;;;;;;;11.07;2.40;;;;;;;25.79;29.06;97324.75;4910942;28;20035;-60
2022/01/20 08:02:56;;;;;;;9.40;2.70;;;;;;;25.77;29.13;97323.94;4908567;28;20198;-61
2022/01/20 08:05:22;;;;;;;10.13;2.50;;;;;;;25.78;29.15;97330.88;4907602;28;20177;-61
2022/01/20 08:07:48;;;;;;;8.20;2.50;;;;;;;25.79;29.29;97337.00;4906863;28;20039;-61
2022/01/20 08:10:14;;;;;;;8.05;2.50;;;;;;;25.78;29.24;97340.56;4906424;28;20490;-61
2022/01/20 08:12:39;;;;;;;5.53;2.28;;;;;;;25.79;29.26;97334.38;4912536;28;20258;-61
2022/01/20 08:15:09;;;;;;;6.28;1.92;;;;;;;25.79;29.15;97337.88;4909816;28;20082;-61
2022/01/20 08:17:34;;;;;;;8.45;2.40;;;;;;;25.80;29.34;97339.56;4908240;28;20154;-61
2022/01/20 08:20:00;;;;;;;5.70;2.30;;;;;;;25.81;29.28;97335.16;4905488;28;20042;-60
2022/01/20 08:22:25;;;;;;;6.43;2.45;;;;;;;25.80;29.44;97339.56;4902572;28;20042;-60
2022/01/20 08:24:52;;;;;;;4.20;1.80;;;;;;;25.81;29.33;97345.66;4916988;28;20932;-60
2022/01/20 08:27:20;;;;;;;4.15;1.95;;;;;;;25.80;29.34;97355.31;4914164;28;20023;-58
2022/01/20 08:29:46;;;;;;;8.30;2.45;;;;;;;25.80;29.54;97350.06;4921252;28;20031;-60
2022/01/20 08:32:11;;;;;;;5.85;1.80;;;;;;;25.79;29.51;97353.63;4919165;28;20046;-61
2022/01/20 08:34:37;;;;;;;5.03;2.10;;;;;;;25.81;29.44;97343.88;4906030;28;20039;-61
2022/01/20 08:37:03;;;;;;;4.82;2.00;;;;;;;25.81;29.36;97335.16;4904233;28;20413;-60
2022/01/20 08:41:58;;;;;;;6.25;1.92;;;;;;;25.81;29.52;97341.25;4911196;28;20126;-60
2022/01/20 08:44:24;;;;;;;4.47;1.80;;;;;;;25.81;29.58;97341.25;4909047;28;20035;-61
2022/01/20 08:46:50;;;;;;;6.03;2.10;;;;;;;25.82;29.53;97348.22;4901314;28;20035;-60
2022/01/20 08:49:16;;;;;;;7.15;1.95;;;;;;;25.83;29.51;97356.94;4901131;28;20304;-60
2022/01/20 08:51:41;;;;;;;8.93;1.70;;;;;;;25.82;29.60;97348.22;4908482;28;20031;-60
2022/01/20 08:54:06;;;;;;;4.47;2.03;;;;;;;25.85;29.71;97351.63;4907678;28;20043;-59
2022/01/20 08:56:34;;;;;;;4.03;2.15;;;;;;;25.87;29.57;97349.78;4907550;28;20031;-60
2022/01/20 08:59:01;;;;;;;4.03;1.90;;;;;;;25.87;29.54;97350.66;4905281;28;20030;-60
2022/01/20 09:01:26;;;;;;;4.88;1.88;;;;;;;25.89;29.62;97358.47;4900145;28;20106;-60
2022/01/20 09:03:52;;;;;;;6.88;1.95;;;;;;;25.92;29.66;97363.56;4905579;28;20031;-60
2022/01/20 09:06:17;;;;;;;5.00;1.60;;;;;;;25.92;29.46;97374.91;4904986;28;20042;-59
2022/01/20 09:08:42;;;;;;;7.13;2.10;;;;;;;25.92;29.52;97372.28;4900801;28;20066;-60
2022/01/20 09:11:18;;;;;;;4.72;1.88;;;;;;;25.94;29.44;97380.09;4916677;28;20035;-58
2022/01/20 09:16:28;;;;;;;6.35;1.90;;;;;;;25.97;29.52;97403.59;4907257;28;20038;-61
2022/01/20 09:18:53;;;;;;;3.75;1.70;;;;;;;25.96;29.54;97407.13;4905134;28;20057;-60
2022/01/20 09:21:22;;;;;;;8.38;3.05;;;;;;;25.89;25.16;97405.72;4900385;28;20039;-61
2022/01/20 09:23:47;;;;;;;12.57;4.25;;;;;;;25.68;23.19;97403.97;4903402;28;20046;-63
2022/01/20 09:26:13;;;;;;;11.48;3.83;;;;;;;25.41;22.17;97395.44;4896549;28;20051;-61
2022/01/20 09:28:39;;;;;;;6.38;3.30;;;;;;;25.18;23.10;97395.47;4904766;28;20074;-63
2022/01/20 09:31:04;;;;;;;7.47;3.03;;;;;;;25.03;23.73;97388.25;4919805;28;20035;-62
2022/01/20 09:33:30;;;;;;;6.88;2.80;;;;;;;24.92;24.04;97384.28;4906815;28;20919;-64
2022/01/20 09:35:56;;;;;;;7.85;2.85;;;;;;;24.88;24.47;97385.34;4904329;28;20133;-61
2022/01/20 09:38:21;;;;;;;9.52;3.10;;;;;;;24.87;24.70;97395.88;4906884;28;20062;-62
2022/01/20 09:40:47;;;;;;;8.32;2.40;;;;;;;24.86;24.82;97395.00;4906447;28;21292;-59
2022/01/20 09:43:14;;;;;;;5.40;2.55;;;;;;;24.88;25.17;97393.19;4915527;28;20432;-60
2022/01/20 09:45:39;;;;;;;5.28;2.50;;;;;;;24.90;25.36;97396.59;4921865;28;20040;-61
2022/01/20 09:48:06;;;;;;;7.63;2.70;;;;;;;24.94;25.35;97378.97;4911300;28;20469;-61
2022/01/20 09:50:31;;;;;;;5.65;2.45;;;;;;;24.97;25.67;97376.22;4903976;28;20027;-60
2022/01/20 09:52:59;;;;;;;6.15;2.70;;;;;;;25.01;25.74;97383.06;4912756;28;20051;-61
2022/01/20 09:55:24;;;;;;;6.85;2.50;;;;;;;25.04;25.65;97380.31;4901171;28;20039;-61
2022/01/20 09:57:50;;;;;;;11.82;2.38;;;;;;;25.09;26.07;97381.91;4904344;28;20063;-61
2022/01/20 10:00:16;;;;;;;5.13;2.42;;;;;;;25.13;26.20;97373.00;4905163;28;20042;-61
2022/01/20 10:02:55;;;;;;;27.23;3.10;;;;;;;25.15;26.14;97363.28;4915969;28;20621;-62
2022/01/20 10:05:28;;;;;;;38.95;4.00;;;;;;;25.20;26.14;97366.56;4916765;28;20661;-62
2022/01/20 10:07:54;;;;;;;20.02;3.88;;;;;;;25.23;26.29;97361.19;4906281;28;20456;-62
2022/01/20 10:10:19;;;;;;;21.42;3.72;;;;;;;25.27;26.47;97362.78;4915278;28;20046;-62
2022/01/20 10:12:44;;;;;;;28.80;5.55;;;;;;;25.29;26.47;97366.19;4915123;28;20035;-61
2022/01/20 10:15:12;;;;;;;15.25;4.70;;;;;;;25.30;26.88;97373.16;4908310;28;20035;-64
2022/01/20 10:17:37;;;;;;;17.17;3.80;;;;;;;25.31;26.95;97384.47;4902627;28;20043;-71
2022/01/20 10:20:07;;;;;;;15.82;3.70;;;;;;;25.31;27.27;97380.09;4910073;28;20226;-63
2022/01/20 10:22:35;;;;;;;17.17;3.80;;;;;;;25.34;27.17;97383.50;4906487;28;20208;-63
2022/01/20 10:25:03;;;;;;;11.50;3.65;;;;;;;25.37;27.36;97381.63;4920222;28;20710;-63
2022/01/20 10:27:33;;;;;;;10.23;3.75;;;;;;;25.45;27.43;97381.28;4921965;28;20035;-64
2022/01/20 10:30:08;;;;;;;10.07;2.85;;;;;;;25.54;27.48;97380.88;4917763;28;20039;-65
2022/01/20 10:32:41;;;;;;;14.32;3.10;;;;;;;25.67;27.42;97390.91;4917287;28;20173;-64
2022/01/20 10:35:08;;;;;;;11.07;2.70;;;;;;;25.79;27.43;97389.50;4921331;28;20032;-65
2022/01/20 10:37:33;;;;;;;7.68;2.67;;;;;;;25.90;27.12;97386.41;4919813;28;20059;-61
2022/01/20 10:40:07;;;;;;;7.65;2.88;;;;;;;26.05;26.90;97396.22;4912731;28;20031;-63
2022/01/20 10:42:43;;;;;;;8.90;2.92;;;;;;;26.19;26.68;97392.13;4912816;28;20169;-62
2022/01/20 10:45:17;;;;;;;6.75;2.58;;;;;;;26.27;26.40;97382.16;4912532;28;22169;-64
2022/01/20 10:47:47;;;;;;;5.50;2.22;;;;;;;26.43;26.36;97382.28;4918008;28;20035;-62
2022/01/20 10:50:15;;;;;;;7.90;2.65;;;;;;;26.54;26.19;97376.53;4917647;28;20038;-62
2022/01/20 10:52:44;;;;;;;8.20;2.60;;;;;;;26.63;26.31;97375.25;4919331;28;20090;-61
2022/01/20 10:55:32;;;;;;;8.93;2.42;;;;;;;26.73;25.88;97380.91;4906238;28;20024;-63
2022/01/20 10:58:12;;;;;;;11.80;2.80;;;;;;;26.81;26.03;97378.78;4912256;28;20496;-67
2022/01/20 11:00:46;;;;;;;6.13;2.40;;;;;;;26.86;26.10;97368.06;4911293;28;20031;-67
2022/01/20 11:03:11;;;;;;;6.72;2.30;;;;;;;26.88;26.06;97364.41;4913558;28;20035;-62
2022/01/20 11:05:38;;;;;;;7.68;2.70;;;;;;;26.91;26.14;97368.66;4911309;28;20078;-60
2022/01/20 11:08:04;;;;;;;8.52;2.28;;;;;;;26.93;26.08;97374.69;4910957;28;20034;-63
2022/01/20 11:10:30;;;;;;;4.15;2.40;;;;;;;26.94;25.91;97370.31;4907875;28;21899;-62
2022/01/20 11:12:55;;;;;;;10.55;2.63;;;;;;;26.93;25.96;97376.50;4913430;28;20019;-60
2022/01/20 11:15:21;;;;;;;6.00;2.40;;;;;;;26.90;25.45;97376.63;4909033;28;20032;-63
2022/01/20 11:17:53;;;;;;;9.25;2.58;;;;;;;26.86;25.57;97366.25;4913225;28;21007;-63
2022/01/20 11:20:25;;;;;;;7.63;2.65;;;;;;;26.82;25.66;97364.72;4910895;28;20031;-60
2022/01/20 11:22:52;;;;;;;8.32;2.42;;;;;;;26.76;25.62;97367.63;4917428;28;20031;-61
2022/01/20 11:25:19;;;;;;;7.07;2.60;;;;;;;26.71;25.71;97369.63;4919834;28;20050;-63
2022/01/20 11:27:44;;;;;;;15.40;2.85;;;;;;;26.66;25.77;97363.75;4914671;28;20027;-62
2022/01/20 11:30:26;;;;;;;17.13;2.50;;;;;;;26.59;25.83;97358.75;4916390;28;20504;-62
2022/01/20 11:33:07;;;;;;;10.70;2.45;;;;;;;26.56;25.81;97353.69;4928260;28;20289;-64
2022/01/20 11:35:38;;;;;;;7.10;2.78;;;;;;;26.49;25.13;97357.50;4935775;28;20662;-62
2022/01/20 11:38:04;;;;;;;13.80;2.63;;;;;;;26.43;25.23;97357.81;4918151;28;20162;-61
2022/01/20 11:40:29;;;;;;;10.82;2.83;;;;;;;26.38;25.43;97359.81;4917047;28;20031;-61
2022/01/20 11:42:59;;;;;;;7.88;2.38;;;;;;;26.33;25.52;97353.00;4919547;28;20561;-61
2022/01/20 11:45:31;;;;;;;8.95;2.60;;;;;;;26.30;25.79;97358.38;4932013;28;20028;-60
2022/01/20 11:47:57;;;;;;;6.55;2.50;;;;;;;26.28;26.09;97349.69;4912158;28;20034;-61
2022/01/20 11:50:22;;;;;;;12.98;2.70;;;;;;;26.30;26.28;97349.63;4921345;28;20027;-60
2022/01/20 11:52:48;;;;;;;12.25;3.10;;;;;;;26.28;26.48;97347.06;4935573;28;20030;-61
2022/01/20 11:55:14;;;;;;;15.02;3.72;;;;;;;26.26;26.66;97341.03;4920116;28;20058;-61
2022/01/20 11:57:40;;;;;;;8.55;2.67;;;;;;;26.26;26.64;97340.19;4916914;28;21128;-61
2022/01/20 12:00:22;;;;;;;16.52;2.90;;;;;;;26.23;26.65;97338.50;4929667;28;20035;-61
2022/01/20 12:02:47;;;;;;;12.70;2.92;;;;;;;26.21;26.82;97335.13;4919780;28;20036;-61
2022/01/20 12:05:25;;;;;;;9.45;2.58;;;;;;;26.19;26.97;97327.31;4931031;28;20587;-61
2022/01/20 12:07:51;;;;;;;12.68;3.03;;;;;;;26.19;27.19;97323.81;4921099;28;20034;-60
2022/01/20 12:10:22;;;;;;;6.20;2.60;;;;;;;26.18;27.34;97315.09;4920200;28;20043;-61
2022/01/20 12:12:47;;;;;;;9.95;2.47;;;;;;;26.18;27.33;97301.09;4922486;28;20035;-61
2022/01/20 12:15:17;;;;;;;8.00;2.65;;;;;;;26.20;27.32;97304.53;4913835;28;20082;-61
2022/01/20 12:17:50;;;;;;;6.65;2.78;;;;;;;26.20;27.45;97312.41;4915101;28;20040;-61
2022/01/20 12:20:15;;;;;;;9.43;2.75;;;;;;;26.19;27.50;97308.06;4919616;28;20042;-61
2022/01/20 12:22:41;;;;;;;7.82;2.50;;;;;;;26.20;27.75;97315.88;4924289;29;20036;-61
2022/01/20 12:25:07;;;;;;;6.72;2.30;;;;;;;26.21;27.73;97324.63;4921751;28;20062;-61
2022/01/20 12:27:32;;;;;;;6.00;2.65;;;;;;;26.22;27.68;97326.31;4921718;28;20550;-60
2022/01/20 12:29:58;;;;;;;7.65;2.53;;;;;;;26.22;27.92;97321.06;4932197;28;20114;-60
2022/01/20 12:32:25;;;;;;;5.72;2.60;;;;;;;26.22;27.90;97324.56;4920024;29;20031;-61
2022/01/20 12:35:00;;;;;;;5.45;2.42;;;;;;;26.23;28.04;97317.50;4917510;29;20054;-60
2022/01/20 12:37:38;;;;;;;5.18;1.92;;;;;;;26.22;27.93;97313.19;4923412;29;20035;-62
2022/01/20 12:40:07;;;;;;;4.90;2.22;;;;;;;26.24;27.99;97316.59;4913389;28;20051;-61
2022/01/20 12:42:37;;;;;;;4.95;2.13;;;;;;;26.24;28.19;97311.34;4923724;29;20126;-61
2022/01/20 12:45:55;;;;;;;8.30;2.20;;;;;;;26.24;28.24;97311.34;4921026;29;20135;-60
2022/01/20 12:47:48;;;;;;;6.20;2.30;;;;;;;26.23;28.19;97309.63;4923109;29;20031;-61
2022/01/20 12:50:13;;;;;;;7.70;2.38;;;;;;;26.25;28.19;97326.19;4917418;28;20664;-62